createdAt,value
2018-01-10T00:00:02.652Z,19.76
2018-01-10T00:01:11.852Z,19.74
2018-01-10T00:02:20.843Z,19.73
2018-01-10T00:03:30.051Z,19.71
2018-01-10T00:04:39.012Z,19.73
2018-01-10T00:05:48.493Z,19.73
2018-01-10T00:06:57.978Z,19.78
2018-01-10T00:08:07.437Z,19.8
2018-01-10T00:09:16.378Z,19.73
2018-01-10T00:10:25.310Z,19.71
2018-01-10T00:11:34.532Z,19.73
2018-01-10T00:12:43.474Z,19.78
2018-01-10T00:13:52.950Z,19.69
2018-01-10T00:15:01.905Z,19.69
2018-01-10T00:16:11.635Z,19.76
2018-01-10T00:17:21.117Z,19.73
2018-01-10T00:18:30.318Z,19.78
2018-01-10T00:19:39.252Z,19.81
2018-01-10T00:20:48.210Z,19.73
2018-01-10T00:21:57.407Z,19.76
2018-01-10T00:23:06.613Z,19.71
2018-01-10T00:24:15.833Z,19.73
2018-01-10T00:25:25.060Z,19.74
2018-01-10T00:26:34.275Z,19.73
2018-01-10T00:27:43.733Z,19.66
2018-01-10T00:28:52.677Z,19.8
2018-01-10T00:30:02.148Z,19.73
2018-01-10T00:31:11.353Z,19.74
2018-01-10T00:32:20.596Z,19.69
2018-01-10T00:33:30.060Z,19.78
2018-01-10T00:34:39.260Z,19.74
2018-01-10T00:35:48.713Z,19.71
2018-01-10T00:36:57.404Z,19.69
2018-01-10T00:38:06.869Z,19.69
2018-01-10T00:39:16.082Z,19.69
2018-01-10T00:40:25.307Z,19.73
2018-01-10T00:41:34.261Z,19.76
2018-01-10T00:42:43.724Z,19.77
2018-01-10T00:43:52.683Z,19.71
2018-01-10T00:45:02.152Z,19.77
2018-01-10T00:46:11.374Z,19.69
2018-01-10T00:47:20.571Z,19.68
2018-01-10T00:48:29.263Z,19.69
2018-01-10T00:49:38.231Z,19.76
2018-01-10T00:50:47.442Z,19.69
2018-01-10T00:51:56.666Z,19.74
2018-01-10T00:53:05.612Z,19.76
2018-01-10T00:54:14.556Z,19.73
2018-01-10T00:55:23.758Z,19.73
2018-01-10T00:56:32.703Z,19.65
2018-01-10T00:57:41.910Z,19.74
2018-01-10T00:58:50.854Z,19.73
2018-01-10T00:59:59.535Z,19.71
2018-01-10T01:01:08.467Z,19.69
2018-01-10T01:02:17.662Z,19.73
2018-01-10T01:03:26.880Z,19.65
2018-01-10T01:04:35.578Z,19.66
2018-01-10T01:05:44.800Z,19.78
2018-01-10T01:06:54.103Z,19.68
2018-01-10T01:08:03.041Z,19.74
2018-01-10T01:09:11.716Z,19.69
2018-01-10T01:10:21.170Z,19.71
2018-01-10T01:11:30.893Z,19.71
2018-01-10T01:12:40.376Z,19.74
2018-01-10T01:13:49.567Z,19.74
2018-01-10T01:14:59.049Z,19.65
2018-01-10T01:16:07.722Z,19.74
2018-01-10T01:17:16.435Z,19.76
2018-01-10T01:18:26.173Z,19.77
2018-01-10T01:19:35.373Z,19.66
2018-01-10T01:20:44.570Z,19.74
2018-01-10T01:21:53.518Z,19.69
2018-01-10T01:23:02.718Z,19.71
2018-01-10T01:24:12.179Z,19.69
2018-01-10T01:25:21.382Z,19.73
2018-01-10T01:26:31.104Z,19.65
2018-01-10T01:27:40.041Z,19.71
2018-01-10T01:28:49.501Z,19.74
2018-01-10T01:29:58.437Z,19.76
2018-01-10T01:31:07.389Z,19.73
2018-01-10T01:32:16.848Z,19.77
2018-01-10T01:33:26.331Z,19.73
2018-01-10T01:34:35.309Z,19.77
2018-01-10T01:35:44.268Z,19.69
2018-01-10T01:36:53.753Z,19.76
2018-01-10T01:38:02.711Z,19.69
2018-01-10T01:39:11.913Z,19.77
2018-01-10T01:40:21.125Z,19.78
2018-01-10T01:41:30.324Z,19.73
2018-01-10T01:42:39.960Z,19.8
2018-01-10T01:43:49.164Z,19.74
2018-01-10T01:44:58.363Z,19.69
2018-01-10T01:46:07.052Z,19.71
2018-01-10T01:47:16.782Z,19.65
2018-01-10T01:48:25.478Z,19.76
2018-01-10T01:49:34.685Z,19.74
2018-01-10T01:50:43.880Z,19.73
2018-01-10T01:51:52.828Z,19.69
2018-01-10T01:53:01.505Z,19.65
2018-01-10T01:54:10.975Z,19.73
2018-01-10T01:55:20.206Z,19.74
2018-01-10T01:56:28.887Z,19.65
2018-01-10T01:57:37.829Z,19.65
2018-01-10T01:58:46.766Z,19.73
2018-01-10T01:59:55.451Z,19.69
2018-01-10T02:01:04.929Z,19.66
2018-01-10T02:02:13.896Z,19.63
2018-01-10T02:03:23.420Z,19.68
2018-01-10T02:04:32.096Z,19.76
2018-01-10T02:05:40.785Z,19.62
2018-01-10T02:06:50.010Z,19.69
2018-01-10T02:07:59.212Z,19.74
2018-01-10T02:09:08.167Z,19.68
2018-01-10T02:10:17.636Z,19.61
2018-01-10T02:11:27.376Z,19.66
2018-01-10T02:12:36.335Z,19.65
2018-01-10T02:13:45.288Z,19.63
2018-01-10T02:14:54.245Z,19.68
2018-01-10T02:16:03.471Z,19.65
2018-01-10T02:17:12.684Z,19.65
2018-01-10T02:18:22.163Z,19.66
2018-01-10T02:19:31.362Z,19.65
2018-01-10T02:20:40.043Z,19.66
2018-01-10T02:21:48.985Z,19.71
2018-01-10T02:22:58.447Z,19.69
2018-01-10T02:24:07.382Z,19.63
2018-01-10T02:25:16.326Z,19.65
2018-01-10T02:26:25.288Z,19.66
2018-01-10T02:27:34.240Z,19.66
2018-01-10T02:28:43.221Z,19.66
2018-01-10T02:29:52.167Z,19.73
2018-01-10T02:31:01.128Z,19.63
2018-01-10T02:32:10.336Z,19.71
2018-01-10T02:33:19.264Z,19.69
2018-01-10T02:34:27.952Z,19.66
2018-01-10T02:35:36.886Z,19.65
2018-01-10T02:36:46.109Z,19.63
2018-01-10T02:37:55.074Z,19.69
2018-01-10T02:39:04.036Z,19.73
2018-01-10T02:40:13.278Z,19.63
2018-01-10T02:41:22.801Z,19.68
2018-01-10T02:42:32.259Z,19.65
2018-01-10T02:43:41.203Z,19.66
2018-01-10T02:44:50.420Z,19.62
2018-01-10T02:45:59.630Z,19.66
2018-01-10T02:47:08.829Z,19.62
2018-01-10T02:48:17.540Z,19.63
2018-01-10T02:49:26.750Z,19.65
2018-01-10T02:50:35.718Z,19.63
2018-01-10T02:51:44.401Z,19.68
2018-01-10T02:52:53.612Z,19.65
2018-01-10T02:54:03.356Z,19.66
2018-01-10T02:55:12.813Z,19.65
2018-01-10T02:56:22.268Z,19.65
2018-01-10T02:57:31.507Z,19.65
2018-01-10T02:58:40.484Z,19.69
2018-01-10T02:59:49.694Z,19.68
2018-01-10T03:00:59.162Z,19.65
2018-01-10T03:02:08.397Z,19.66
2018-01-10T03:03:17.598Z,19.63
2018-01-10T03:04:26.554Z,19.66
2018-01-10T03:05:35.488Z,19.65
2018-01-10T03:06:44.426Z,19.63
2018-01-10T03:07:53.634Z,19.69
2018-01-10T03:09:02.849Z,19.62
2018-01-10T03:10:12.314Z,19.65
2018-01-10T03:11:21.516Z,19.71
2018-01-10T03:12:30.979Z,19.68
2018-01-10T03:13:39.914Z,19.66
2018-01-10T03:14:48.591Z,19.66
2018-01-10T03:15:57.534Z,19.63
2018-01-10T03:17:06.483Z,19.68
2018-01-10T03:18:15.686Z,19.65
2018-01-10T03:19:24.626Z,19.66
2018-01-10T03:20:33.839Z,19.63
2018-01-10T03:21:42.512Z,19.66
2018-01-10T03:22:51.728Z,19.68
2018-01-10T03:24:00.664Z,19.65
2018-01-10T03:25:09.342Z,19.63
2018-01-10T03:26:19.065Z,19.66
2018-01-10T03:27:28.542Z,19.65
2018-01-10T03:28:37.231Z,19.65
2018-01-10T03:29:46.165Z,19.71
2018-01-10T03:30:56.334Z,19.65
2018-01-10T03:32:05.531Z,19.63
2018-01-10T03:33:14.768Z,19.73
2018-01-10T03:34:23.710Z,19.65
2018-01-10T03:35:32.407Z,19.63
2018-01-10T03:36:41.614Z,19.65
2018-01-10T03:37:51.093Z,19.65
2018-01-10T03:39:00.301Z,19.66
2018-01-10T03:40:10.055Z,19.63
2018-01-10T03:41:19.258Z,19.68
2018-01-10T03:42:27.934Z,19.8
2018-01-10T03:43:37.139Z,19.69
2018-01-10T03:44:46.430Z,19.74
2018-01-10T03:45:55.113Z,19.73
2018-01-10T03:47:04.055Z,19.66
2018-01-10T03:48:13.244Z,19.63
2018-01-10T03:49:22.716Z,19.65
2018-01-10T03:50:31.936Z,19.77
2018-01-10T03:51:41.132Z,19.66
2018-01-10T03:52:50.076Z,19.71
2018-01-10T03:53:59.025Z,19.63
2018-01-10T03:55:07.698Z,19.69
2018-01-10T03:56:17.155Z,19.68
2018-01-10T03:57:26.626Z,19.66
2018-01-10T03:58:35.306Z,19.63
2018-01-10T03:59:45.068Z,19.71
2018-01-10T04:00:54.260Z,19.65
2018-01-10T04:02:03.202Z,19.63
2018-01-10T04:03:12.462Z,19.63
2018-01-10T04:04:21.404Z,19.65
2018-01-10T04:05:30.346Z,19.61
2018-01-10T04:06:39.026Z,19.63
2018-01-10T04:07:48.226Z,19.65
2018-01-10T04:08:57.424Z,19.69
2018-01-10T04:10:06.915Z,19.65
2018-01-10T04:11:16.120Z,19.65
2018-01-10T04:12:24.809Z,19.65
2018-01-10T04:13:33.765Z,19.68
2018-01-10T04:14:42.717Z,19.69
2018-01-10T04:15:51.913Z,19.71
2018-01-10T04:17:00.600Z,19.74
2018-01-10T04:18:09.539Z,19.66
2018-01-10T04:19:19.017Z,19.66
2018-01-10T04:20:27.969Z,19.69
2018-01-10T04:21:36.920Z,19.69
2018-01-10T04:22:46.179Z,19.73
2018-01-10T04:23:55.488Z,19.65
2018-01-10T04:25:04.433Z,19.68
2018-01-10T04:26:13.115Z,19.74
2018-01-10T04:27:22.058Z,19.63
2018-01-10T04:28:30.996Z,19.68
2018-01-10T04:29:40.200Z,19.69
2018-01-10T04:30:49.134Z,19.69
2018-01-10T04:31:58.081Z,19.68
2018-01-10T04:33:07.025Z,19.63
2018-01-10T04:34:15.705Z,19.63
2018-01-10T04:35:24.929Z,19.71
2018-01-10T04:36:34.120Z,19.65
2018-01-10T04:37:43.313Z,19.66
2018-01-10T04:38:52.250Z,19.74
2018-01-10T04:40:01.741Z,19.68
2018-01-10T04:41:10.421Z,19.63
2018-01-10T04:42:19.104Z,19.62
2018-01-10T04:43:28.311Z,19.63
2018-01-10T04:44:36.984Z,19.66
2018-01-10T04:45:45.936Z,19.58
2018-01-10T04:46:55.400Z,19.63
2018-01-10T04:48:04.892Z,19.63
2018-01-10T04:49:13.836Z,19.63
2018-01-10T04:50:23.052Z,19.66
2018-01-10T04:51:32.006Z,19.63
2018-01-10T04:52:41.291Z,19.74
2018-01-10T04:53:50.754Z,19.65
2018-01-10T04:54:59.692Z,19.65
2018-01-10T04:56:08.904Z,19.74
2018-01-10T04:57:17.860Z,19.63
2018-01-10T04:58:27.063Z,19.65
2018-01-10T04:59:35.746Z,19.63
2018-01-10T05:00:44.938Z,19.69
2018-01-10T05:01:53.614Z,19.65
2018-01-10T05:03:02.541Z,19.65
2018-01-10T05:04:11.497Z,19.66
2018-01-10T05:05:20.429Z,19.63
2018-01-10T05:06:29.367Z,19.65
2018-01-10T05:07:38.584Z,19.71
2018-01-10T05:08:47.270Z,19.62
2018-01-10T05:09:56.754Z,19.68
2018-01-10T05:11:05.458Z,19.66
2018-01-10T05:12:14.127Z,19.65
2018-01-10T05:13:23.322Z,19.69
2018-01-10T05:14:32.258Z,19.65
2018-01-10T05:15:41.718Z,19.69
2018-01-10T05:16:51.183Z,19.68
2018-01-10T05:18:00.374Z,19.66
2018-01-10T05:19:09.304Z,19.69
2018-01-10T05:20:18.243Z,19.68
2018-01-10T05:21:27.194Z,19.66
2018-01-10T05:22:36.154Z,19.69
2018-01-10T05:23:45.086Z,19.66
2018-01-10T05:24:54.281Z,19.68
2018-01-10T05:26:03.738Z,19.73
2018-01-10T05:27:12.689Z,19.78
2018-01-10T05:28:21.916Z,19.73
2018-01-10T05:29:31.109Z,19.69
2018-01-10T05:30:40.044Z,19.71
2018-01-10T05:31:49.498Z,19.66
2018-01-10T05:32:58.431Z,19.65
2018-01-10T05:34:08.143Z,19.63
2018-01-10T05:35:17.343Z,19.65
2018-01-10T05:36:26.341Z,19.73
2018-01-10T05:37:35.013Z,19.69
2018-01-10T05:38:44.212Z,19.84
2018-01-10T05:39:53.408Z,19.8
2018-01-10T05:41:02.609Z,19.83
2018-01-10T05:42:11.289Z,19.95
2018-01-10T05:43:20.481Z,19.99
2018-01-10T05:44:29.676Z,19.98
2018-01-10T05:45:38.640Z,20.1
2018-01-10T05:46:47.833Z,20.06
2018-01-10T05:47:56.769Z,20.24
2018-01-10T05:49:05.973Z,20.18
2018-01-10T05:50:14.652Z,20.33
2018-01-10T05:51:23.857Z,20.39
2018-01-10T05:52:33.577Z,20.42
2018-01-10T05:53:42.771Z,20.48
2018-01-10T05:54:51.451Z,20.5
2018-01-10T05:56:00.657Z,20.54
2018-01-10T05:57:09.865Z,20.57
2018-01-10T05:58:18.805Z,20.67
2018-01-10T05:59:27.755Z,20.7
2018-01-10T06:00:36.968Z,20.69
2018-01-10T06:01:46.212Z,20.73
2018-01-10T06:02:54.896Z,20.76
2018-01-10T06:04:03.844Z,20.84
2018-01-10T06:05:13.558Z,20.8
2018-01-10T06:06:22.488Z,20.8
2018-01-10T06:07:31.680Z,20.94
2018-01-10T06:08:40.884Z,20.98
2018-01-10T06:09:49.827Z,21.1
2018-01-10T06:10:58.787Z,21.03
2018-01-10T06:12:08.267Z,21.12
2018-01-10T06:13:17.715Z,21.16
2018-01-10T06:14:26.649Z,21.25
2018-01-10T06:15:36.108Z,21.28
2018-01-10T06:16:51.852Z,21.38
2018-01-10T06:18:00.790Z,21.37
2018-01-10T06:19:09.986Z,21.44
2018-01-10T06:20:19.216Z,21.44
2018-01-10T06:21:28.677Z,21.43
2018-01-10T06:22:38.133Z,21.52
2018-01-10T06:23:47.084Z,21.52
2018-01-10T06:24:56.033Z,21.5
2018-01-10T06:26:05.229Z,21.56
2018-01-10T06:27:14.492Z,21.62
2018-01-10T06:28:23.955Z,21.62
2018-01-10T06:29:33.152Z,21.64
2018-01-10T06:30:42.094Z,21.74
2018-01-10T06:31:51.302Z,21.72
2018-01-10T06:33:00.252Z,21.8
2018-01-10T06:34:09.457Z,21.8
2018-01-10T06:35:18.730Z,21.9
2018-01-10T06:36:27.937Z,21.82
2018-01-10T06:37:36.887Z,21.96
2018-01-10T06:38:45.818Z,21.94
2018-01-10T06:39:55.025Z,21.99
2018-01-10T06:41:04.222Z,22.02
2018-01-10T06:42:13.430Z,22.09
2018-01-10T06:43:22.370Z,22.18
2018-01-10T06:44:31.576Z,22.15
2018-01-10T06:45:40.785Z,22.2
2018-01-10T06:46:50.518Z,22.2
2018-01-10T06:47:59.190Z,22.27
2018-01-10T06:49:08.126Z,22.24
2018-01-10T06:50:17.334Z,22.24
2018-01-10T06:51:26.294Z,22.27
2018-01-10T06:52:35.242Z,22.42
2018-01-10T06:53:44.445Z,22.49
2018-01-10T06:54:53.655Z,22.45
2018-01-10T06:56:02.848Z,22.52
2018-01-10T06:57:12.055Z,22.54
2018-01-10T06:58:21.275Z,22.55
2018-01-10T06:59:30.220Z,22.61
2018-01-10T07:00:38.900Z,22.54
2018-01-10T07:01:48.102Z,22.6
2018-01-10T07:02:57.034Z,22.61
2018-01-10T07:04:06.498Z,22.52
2018-01-10T07:05:15.709Z,22.55
2018-01-10T07:06:24.383Z,22.61
2018-01-10T07:07:33.896Z,22.54
2018-01-10T07:08:43.628Z,22.58
2018-01-10T07:09:52.561Z,22.54
2018-01-10T07:11:01.798Z,22.58
2018-01-10T07:12:10.743Z,22.55
2018-01-10T07:13:20.241Z,22.55
2018-01-10T07:14:29.431Z,22.61
2018-01-10T07:15:38.388Z,22.51
2018-01-10T07:16:47.605Z,22.51
2018-01-10T07:17:57.328Z,22.39
2018-01-10T07:19:06.536Z,22.46
2018-01-10T07:20:15.485Z,22.45
2018-01-10T07:21:24.161Z,22.47
2018-01-10T07:22:33.363Z,22.39
2018-01-10T07:23:42.298Z,22.33
2018-01-10T07:24:51.237Z,22.31
2018-01-10T07:26:00.170Z,22.27
2018-01-10T07:27:09.397Z,22.24
2018-01-10T07:28:18.634Z,22.17
2018-01-10T07:29:28.357Z,22.15
2018-01-10T07:30:37.301Z,22.18
2018-01-10T07:31:45.991Z,22.15
2018-01-10T07:32:54.667Z,22.1
2018-01-10T07:34:04.447Z,22.05
2018-01-10T07:35:13.129Z,22
2018-01-10T07:36:22.339Z,21.94
2018-01-10T07:37:31.836Z,22
2018-01-10T07:38:41.067Z,21.98
2018-01-10T07:39:50.273Z,22
2018-01-10T07:40:59.302Z,21.92
2018-01-10T07:42:08.244Z,21.88
2018-01-10T07:43:16.922Z,21.84
2018-01-10T07:44:25.891Z,21.72
2018-01-10T07:45:34.855Z,21.8
2018-01-10T07:46:43.808Z,21.75
2018-01-10T07:47:52.513Z,21.72
2018-01-10T07:49:01.999Z,21.68
2018-01-10T07:50:11.903Z,21.62
2018-01-10T07:51:21.111Z,21.61
2018-01-10T07:52:30.326Z,21.61
2018-01-10T07:53:39.800Z,21.56
2018-01-10T07:54:48.740Z,21.58
2018-01-10T07:55:57.950Z,21.53
2018-01-10T07:57:07.168Z,21.49
2018-01-10T07:58:16.372Z,21.47
2018-01-10T07:59:25.568Z,21.43
2018-01-10T08:00:34.773Z,21.43
2018-01-10T08:01:44.012Z,21.34
2018-01-10T08:02:53.483Z,21.37
2018-01-10T08:04:02.489Z,21.37
2018-01-10T08:05:11.444Z,21.35
2018-01-10T08:06:20.386Z,21.27
2018-01-10T08:07:29.847Z,21.27
2018-01-10T08:08:39.065Z,21.32
2018-01-10T08:09:48.542Z,21.22
2018-01-10T08:10:57.493Z,21.24
2018-01-10T08:12:06.722Z,21.29
2018-01-10T08:13:15.406Z,21.17
2018-01-10T08:14:24.872Z,21.17
2018-01-10T08:15:33.867Z,21.14
2018-01-10T08:16:42.820Z,21.1
2018-01-10T08:17:51.783Z,21.07
2018-01-10T08:19:00.994Z,21.14
2018-01-10T08:20:10.200Z,21.21
2018-01-10T08:21:19.151Z,21.06
2018-01-10T08:22:28.616Z,21.06
2018-01-10T08:23:37.823Z,21.04
2018-01-10T08:24:47.314Z,21.09
2018-01-10T08:25:56.536Z,21.03
2018-01-10T08:27:05.558Z,21.06
2018-01-10T08:28:15.049Z,20.99
2018-01-10T08:29:24.518Z,20.97
2018-01-10T08:30:33.461Z,20.98
2018-01-10T08:31:42.658Z,20.99
2018-01-10T08:32:52.446Z,20.98
2018-01-10T08:34:01.667Z,20.97
2018-01-10T08:35:11.444Z,20.99
2018-01-10T08:36:20.649Z,20.98
2018-01-10T08:37:29.872Z,20.94
2018-01-10T08:38:38.833Z,20.95
2018-01-10T08:39:48.304Z,20.84
2018-01-10T08:40:57.532Z,20.85
2018-01-10T08:42:06.771Z,20.89
2018-01-10T08:43:15.722Z,20.87
2018-01-10T08:44:24.408Z,20.85
2018-01-10T08:45:33.632Z,20.84
2018-01-10T08:46:42.837Z,20.91
2018-01-10T08:47:52.819Z,20.87
2018-01-10T08:49:02.043Z,20.84
2018-01-10T08:50:11.526Z,20.91
2018-01-10T08:51:20.735Z,20.84
2018-01-10T08:52:30.203Z,20.88
2018-01-10T08:53:39.690Z,20.82
2018-01-10T08:54:48.633Z,20.82
2018-01-10T08:55:57.363Z,20.89
2018-01-10T08:57:06.319Z,20.79
2018-01-10T08:58:15.786Z,20.85
2018-01-10T08:59:24.986Z,20.82
2018-01-10T09:00:33.940Z,20.82
2018-01-10T09:01:43.145Z,20.77
2018-01-10T09:02:52.349Z,20.91
2018-01-10T09:04:01.289Z,20.82
2018-01-10T09:05:10.241Z,20.84
2018-01-10T09:06:19.725Z,20.79
2018-01-10T09:07:28.762Z,20.8
2018-01-10T09:08:38.230Z,20.79
2018-01-10T09:09:47.187Z,20.76
2018-01-10T09:10:56.168Z,20.84
2018-01-10T09:12:05.115Z,20.8
2018-01-10T09:13:14.065Z,20.87
2018-01-10T09:14:23.257Z,20.82
2018-01-10T09:15:32.482Z,20.77
2018-01-10T09:16:41.701Z,20.82
2018-01-10T09:17:50.641Z,20.8
2018-01-10T09:18:59.597Z,20.79
2018-01-10T09:20:08.549Z,20.82
2018-01-10T09:21:18.292Z,20.82
2018-01-10T09:22:27.498Z,20.76
2018-01-10T09:23:36.969Z,20.77
2018-01-10T09:24:45.956Z,20.79
2018-01-10T09:25:55.167Z,20.77
2018-01-10T09:27:04.136Z,20.79
2018-01-10T09:28:12.814Z,20.8
2018-01-10T09:29:22.034Z,20.82
2018-01-10T09:30:31.024Z,20.84
2018-01-10T09:31:39.969Z,20.87
2018-01-10T09:32:48.923Z,20.88
2018-01-10T09:33:58.142Z,20.85
2018-01-10T09:35:06.817Z,20.82
2018-01-10T09:36:15.786Z,20.8
2018-01-10T09:37:24.476Z,20.88
2018-01-10T09:38:34.219Z,20.85
2018-01-10T09:39:43.153Z,20.87
2018-01-10T09:40:52.366Z,20.88
2018-01-10T09:42:01.587Z,20.89
2018-01-10T09:43:11.080Z,20.88
2018-01-10T09:44:19.762Z,20.82
2018-01-10T09:45:28.975Z,20.82
2018-01-10T09:46:38.180Z,20.85
2018-01-10T09:47:46.870Z,20.82
2018-01-10T09:48:55.558Z,20.82
2018-01-10T09:50:05.014Z,20.87
2018-01-10T09:51:13.957Z,20.87
2018-01-10T09:52:23.431Z,20.87
2018-01-10T09:53:32.640Z,20.88
2018-01-10T09:54:42.149Z,20.88
2018-01-10T09:55:51.093Z,20.82
2018-01-10T09:56:59.775Z,20.8
2018-01-10T09:58:08.747Z,20.85
2018-01-10T09:59:17.953Z,20.95
2018-01-10T10:00:27.170Z,20.94
2018-01-10T10:01:36.114Z,20.91
2018-01-10T10:02:45.606Z,20.98
2018-01-10T10:03:54.552Z,20.92
2018-01-10T10:05:04.043Z,20.95
2018-01-10T10:06:13.258Z,20.92
2018-01-10T10:07:22.480Z,20.97
2018-01-10T10:08:31.702Z,20.98
2018-01-10T10:09:40.902Z,20.97
2018-01-10T10:10:50.111Z,21.09
2018-01-10T10:11:59.067Z,21.06
2018-01-10T10:13:08.286Z,21.03
2018-01-10T10:14:17.520Z,21.04
2018-01-10T10:15:26.472Z,21.12
2018-01-10T10:16:35.941Z,21.14
2018-01-10T10:17:45.139Z,21.07
2018-01-10T10:18:54.098Z,21.06
2018-01-10T10:20:02.814Z,21.13
2018-01-10T10:21:11.771Z,21.07
2018-01-10T10:22:20.978Z,21.13
2018-01-10T10:23:29.928Z,21.1
2018-01-10T10:24:39.156Z,21.14
2018-01-10T10:25:48.622Z,21.14
2018-01-10T10:26:57.840Z,21.09
2018-01-10T10:28:07.062Z,21.12
2018-01-10T10:29:16.028Z,20.99
2018-01-10T10:30:24.712Z,21.06
2018-01-10T10:31:33.668Z,21.03
2018-01-10T10:32:43.140Z,21.03
2018-01-10T10:33:52.352Z,21.09
2018-01-10T10:35:01.574Z,21.01
2018-01-10T10:36:10.269Z,21.12
2018-01-10T10:37:19.477Z,21.09
2018-01-10T10:38:28.430Z,21.04
2018-01-10T10:39:37.642Z,21.01
2018-01-10T10:40:47.100Z,21.09
2018-01-10T10:41:56.579Z,21.06
2018-01-10T10:43:05.260Z,21.1
2018-01-10T10:44:14.463Z,21.06
2018-01-10T10:45:24.200Z,21.04
2018-01-10T10:46:33.166Z,20.98
2018-01-10T10:47:42.382Z,21.03
2018-01-10T10:48:51.849Z,21.06
2018-01-10T10:50:01.584Z,20.99
2018-01-10T10:51:10.784Z,21.03
2018-01-10T10:52:20.276Z,20.99
2018-01-10T10:53:29.477Z,20.97
2018-01-10T10:54:38.689Z,20.94
2018-01-10T10:55:47.897Z,20.98
2018-01-10T10:56:56.844Z,20.98
2018-01-10T10:58:06.307Z,20.95
2018-01-10T10:59:15.252Z,20.94
2018-01-10T11:00:24.198Z,20.97
2018-01-10T11:01:33.405Z,20.94
2018-01-10T11:02:42.354Z,21.03
2018-01-10T11:03:51.561Z,20.98
2018-01-10T11:05:00.501Z,20.98
2018-01-10T11:06:09.985Z,20.94
2018-01-10T11:07:19.211Z,20.92
2018-01-10T11:08:28.418Z,20.91
2018-01-10T11:09:37.365Z,20.95
2018-01-10T11:10:46.043Z,20.89
2018-01-10T11:11:55.036Z,20.91
2018-01-10T11:13:03.726Z,20.92
2018-01-10T11:14:12.409Z,20.79
2018-01-10T11:15:21.883Z,20.82
2018-01-10T11:16:31.094Z,20.88
2018-01-10T11:17:40.050Z,20.85
2018-01-10T11:18:49.000Z,20.88
2018-01-10T11:19:57.958Z,20.87
2018-01-10T11:21:06.900Z,20.85
2018-01-10T11:22:15.583Z,20.82
2018-01-10T11:23:25.059Z,20.91
2018-01-10T11:24:34.004Z,20.84
2018-01-10T11:25:42.684Z,20.88
2018-01-10T11:26:51.639Z,20.85
2018-01-10T11:28:00.873Z,20.8
2018-01-10T11:29:10.346Z,20.8
2018-01-10T11:30:19.557Z,20.88
2018-01-10T11:31:29.042Z,20.82
2018-01-10T11:32:38.247Z,20.89
2018-01-10T11:33:46.934Z,20.82
2018-01-10T11:34:56.154Z,20.89
2018-01-10T11:36:05.417Z,20.89
2018-01-10T11:37:14.353Z,20.8
2018-01-10T11:38:23.303Z,20.89
2018-01-10T11:39:32.504Z,20.82
2018-01-10T11:40:41.454Z,20.8
2018-01-10T11:41:50.468Z,20.79
2018-01-10T11:42:59.154Z,20.73
2018-01-10T11:44:08.359Z,20.91
2018-01-10T11:45:17.563Z,20.85
2018-01-10T11:46:26.761Z,20.77
2018-01-10T11:47:36.502Z,20.82
2018-01-10T11:48:45.969Z,20.8
2018-01-10T11:49:55.189Z,20.87
2018-01-10T11:51:04.149Z,20.77
2018-01-10T11:52:13.353Z,20.79
2018-01-10T11:53:22.304Z,20.85
2018-01-10T11:54:31.508Z,20.89
2018-01-10T11:55:40.972Z,20.88
2018-01-10T11:56:50.196Z,20.85
2018-01-10T11:57:59.661Z,20.84
2018-01-10T11:59:08.853Z,20.91
2018-01-10T12:00:17.797Z,20.91
2018-01-10T12:01:27.000Z,20.88
2018-01-10T12:02:35.683Z,20.87
2018-01-10T12:03:44.894Z,20.84
2018-01-10T12:04:54.092Z,20.82
2018-01-10T12:06:03.295Z,20.84
2018-01-10T12:07:12.546Z,20.8
2018-01-10T12:08:21.502Z,20.84
2018-01-10T12:09:30.710Z,20.85
2018-01-10T12:10:40.451Z,20.84
2018-01-10T12:11:49.657Z,20.84
2018-01-10T12:12:58.868Z,20.92
2018-01-10T12:14:08.080Z,20.91
2018-01-10T12:15:17.538Z,20.88
2018-01-10T12:16:26.485Z,20.89
2018-01-10T12:17:35.694Z,20.94
2018-01-10T12:18:44.902Z,20.91
2018-01-10T12:19:54.125Z,20.97
2018-01-10T12:21:04.115Z,20.89
2018-01-10T12:22:13.062Z,20.95
2018-01-10T12:23:22.531Z,20.94
2018-01-10T12:24:32.012Z,20.97
2018-01-10T12:25:41.493Z,20.88
2018-01-10T12:26:50.180Z,20.91
2018-01-10T12:27:59.381Z,20.92
2018-01-10T12:29:08.593Z,20.95
2018-01-10T12:30:17.857Z,20.94
2018-01-10T12:31:27.327Z,20.94
2018-01-10T12:32:36.573Z,20.89
2018-01-10T12:33:46.066Z,20.92
2018-01-10T12:34:55.027Z,20.98
2018-01-10T12:36:04.562Z,20.89
2018-01-10T12:37:13.250Z,20.91
2018-01-10T12:38:22.721Z,20.97
2018-01-10T12:39:31.674Z,20.95
2018-01-10T12:40:40.642Z,20.91
2018-01-10T12:41:49.835Z,20.92
2018-01-10T12:42:58.785Z,20.94
2018-01-10T12:44:08.254Z,20.95
2018-01-10T12:45:17.464Z,20.94
2018-01-10T12:46:26.417Z,20.92
2018-01-10T12:47:35.352Z,20.97
2018-01-10T12:48:44.046Z,20.95
2018-01-10T12:49:53.259Z,20.89
2018-01-10T12:51:02.204Z,20.91
2018-01-10T12:52:10.882Z,20.95
2018-01-10T12:53:20.121Z,20.82
2018-01-10T12:54:29.345Z,20.87
2018-01-10T12:55:38.287Z,20.91
2018-01-10T12:56:47.236Z,20.91
2018-01-10T12:57:55.919Z,20.92
2018-01-10T12:59:05.141Z,20.89
2018-01-10T13:00:13.834Z,20.94
2018-01-10T13:01:22.783Z,20.92
2018-01-10T13:02:32.539Z,20.91
2018-01-10T13:03:41.444Z,20.94
2018-01-10T13:04:50.712Z,20.97
2018-01-10T13:05:59.942Z,20.94
2018-01-10T13:07:08.633Z,20.95
2018-01-10T13:08:17.304Z,20.95
2018-01-10T13:09:26.259Z,20.97
2018-01-10T13:10:35.202Z,20.94
2018-01-10T13:11:44.407Z,20.97
2018-01-10T13:12:53.872Z,20.92
2018-01-10T13:14:03.075Z,20.95
2018-01-10T13:15:12.546Z,20.88
2018-01-10T13:16:21.784Z,20.92
2018-01-10T13:17:30.522Z,20.94
2018-01-10T13:18:39.745Z,20.95
2018-01-10T13:19:48.707Z,20.89
2018-01-10T13:20:57.669Z,20.92
2018-01-10T13:22:06.628Z,20.94
2018-01-10T13:23:15.826Z,20.94
2018-01-10T13:24:24.828Z,20.95
2018-01-10T13:25:33.855Z,20.95
2018-01-10T13:26:43.333Z,20.95
2018-01-10T13:27:52.610Z,20.95
2018-01-10T13:29:01.572Z,20.97
2018-01-10T13:30:10.815Z,20.89
2018-01-10T13:31:19.800Z,20.84
2018-01-10T13:32:29.092Z,20.97
2018-01-10T13:33:38.387Z,20.88
2018-01-10T13:34:47.609Z,20.84
2018-01-10T13:35:56.571Z,20.84
2018-01-10T13:37:05.586Z,20.87
2018-01-10T13:38:14.797Z,20.84
2018-01-10T13:39:23.983Z,20.85
2018-01-10T13:40:33.494Z,20.84
2018-01-10T13:41:42.217Z,20.82
2018-01-10T13:42:51.177Z,20.87
2018-01-10T13:43:59.861Z,20.8
2018-01-10T13:45:09.076Z,20.79
2018-01-10T13:46:18.811Z,20.8
2018-01-10T13:47:27.755Z,20.77
2018-01-10T13:48:37.226Z,20.8
2018-01-10T13:49:45.901Z,20.73
2018-01-10T13:50:54.842Z,20.74
2018-01-10T13:52:04.042Z,20.77
2018-01-10T13:53:13.776Z,20.79
2018-01-10T13:54:22.733Z,20.8
2018-01-10T13:55:31.952Z,20.79
2018-01-10T13:56:40.901Z,20.82
2018-01-10T13:57:49.592Z,20.79
2018-01-10T13:58:59.315Z,20.77
2018-01-10T14:00:08.806Z,20.77
2018-01-10T14:01:17.764Z,20.76
2018-01-10T14:02:27.014Z,20.67
2018-01-10T14:03:35.965Z,20.64
2018-01-10T14:04:44.928Z,20.73
2018-01-10T14:05:54.129Z,20.69
2018-01-10T14:07:03.334Z,20.69
2018-01-10T14:08:12.803Z,20.67
2018-01-10T14:09:21.503Z,20.66
2018-01-10T14:10:30.192Z,20.7
2018-01-10T14:11:39.137Z,20.69
2018-01-10T14:12:48.077Z,20.7
2018-01-10T14:13:57.299Z,20.66
2018-01-10T14:15:06.268Z,20.64
2018-01-10T14:16:15.208Z,20.7
2018-01-10T14:17:24.678Z,20.73
2018-01-10T14:18:33.917Z,20.73
2018-01-10T14:19:43.388Z,20.72
2018-01-10T14:20:52.872Z,20.69
2018-01-10T14:22:02.106Z,20.7
2018-01-10T14:23:11.062Z,20.69
2018-01-10T14:24:20.538Z,20.76
2018-01-10T14:25:29.486Z,20.73
2018-01-10T14:26:38.439Z,20.64
2018-01-10T14:27:47.931Z,20.69
2018-01-10T14:28:57.396Z,20.67
2018-01-10T14:30:06.076Z,20.73
2018-01-10T14:31:15.021Z,20.73
2018-01-10T14:32:24.228Z,20.69
2018-01-10T14:33:33.171Z,20.69
2018-01-10T14:34:42.125Z,20.67
2018-01-10T14:35:51.333Z,20.69
2018-01-10T14:37:00.543Z,20.67
2018-01-10T14:38:10.031Z,20.67
2018-01-10T14:39:19.274Z,20.73
2018-01-10T14:40:28.244Z,20.64
2018-01-10T14:41:37.748Z,20.62
2018-01-10T14:42:46.966Z,20.69
2018-01-10T14:43:55.915Z,20.72
2018-01-10T14:45:05.138Z,20.62
2018-01-10T14:46:14.093Z,20.66
2018-01-10T14:47:23.290Z,20.66
2018-01-10T14:48:32.234Z,20.62
2018-01-10T14:49:40.939Z,20.61
2018-01-10T14:50:49.644Z,20.67
2018-01-10T14:51:58.586Z,20.67